sensor_id;sensor_type;location;lat;lon;timestamp;pressure;altitude;pressure_sealevel;temperature;humidity
43838;BME280;65998;46.256;7.534;2023-05-24T00:00:51;87007.56;;;19.37;59.12
43838;BME280;65998;46.256;7.534;2023-05-24T00:03:25;87002.66;;;19.37;59.24
43838;BME280;65998;46.256;7.534;2023-05-24T00:05:51;87011.03;;;19.37;59.23
43838;BME280;65998;46.256;7.534;2023-05-24T00:08:17;87002.00;;;19.37;59.06
43838;BME280;65998;46.256;7.534;2023-05-24T00:10:43;86998.53;;;19.36;59.04
43838;BME280;65998;46.256;7.534;2023-05-24T00:13:08;86996.41;;;19.37;59.08
43838;BME280;65998;46.256;7.534;2023-05-24T00:15:34;86996.41;;;19.37;59.04
43838;BME280;65998;46.256;7.534;2023-05-24T00:18:00;86995.75;;;19.36;58.96
43838;BME280;65998;46.256;7.534;2023-05-24T00:20:26;86995.06;;;19.36;58.85
43838;BME280;65998;46.256;7.534;2023-05-24T00:22:51;86989.50;;;19.36;59.05
43838;BME280;65998;46.256;7.534;2023-05-24T00:25:17;86989.50;;;19.36;59.04
43838;BME280;65998;46.256;7.534;2023-05-24T00:27:43;86988.16;;;19.35;59.08
43838;BME280;65998;46.256;7.534;2023-05-24T00:30:09;86989.50;;;19.36;58.86
43838;BME280;65998;46.256;7.534;2023-05-24T00:32:35;86985.34;;;19.35;59.00
43838;BME280;65998;46.256;7.534;2023-05-24T00:35:01;86986.03;;;19.35;59.19
43838;BME280;65998;46.256;7.534;2023-05-24T00:37:26;86984.69;;;19.34;59.12
43838;BME280;65998;46.256;7.534;2023-05-24T00:39:52;86981.91;;;19.34;58.99
43838;BME280;65998;46.256;7.534;2023-05-24T00:42:18;86986.78;;;19.34;58.90
43838;BME280;65998;46.256;7.534;2023-05-24T00:44:44;86989.59;;;19.34;58.93
43838;BME280;65998;46.256;7.534;2023-05-24T00:47:10;86983.34;;;19.33;59.02
43838;BME280;65998;46.256;7.534;2023-05-24T00:49:36;86986.13;;;19.33;59.06
43838;BME280;65998;46.256;7.534;2023-05-24T00:52:02;86979.88;;;19.33;59.07
43838;BME280;65998;46.256;7.534;2023-05-24T00:54:28;86976.41;;;19.32;59.02
43838;BME280;65998;46.256;7.534;2023-05-24T00:56:55;86978.53;;;19.32;59.02
43838;BME280;65998;46.256;7.534;2023-05-24T00:59:22;86975.72;;;19.32;59.01
43838;BME280;65998;46.256;7.534;2023-05-24T01:01:48;86975.72;;;19.32;58.97
43838;BME280;65998;46.256;7.534;2023-05-24T01:04:14;86977.16;;;19.31;58.88
43838;BME280;65998;46.256;7.534;2023-05-24T01:06:59;86975.06;;;19.31;59.10
43838;BME280;65998;46.256;7.534;2023-05-24T01:09:39;86971.59;;;19.31;58.89
43838;BME280;65998;46.256;7.534;2023-05-24T01:15:10;86966.69;;;19.31;59.01
43838;BME280;65998;46.256;7.534;2023-05-24T01:18:06;86965.34;;;19.30;59.02
43838;BME280;65998;46.256;7.534;2023-05-24T01:20:32;86968.13;;;19.30;59.16
43838;BME280;65998;46.256;7.534;2023-05-24T01:25:48;86970.25;;;19.30;59.15
43838;BME280;65998;46.256;7.534;2023-05-24T01:28:17;86977.25;;;19.29;59.37
43838;BME280;65998;46.256;7.534;2023-05-24T01:30:44;86972.34;;;19.29;59.19
43838;BME280;65998;46.256;7.534;2023-05-24T01:33:10;86968.22;;;19.28;59.40
43838;BME280;65998;46.256;7.534;2023-05-24T01:35:36;86965.44;;;19.28;59.46
43838;BME280;65998;46.256;7.534;2023-05-24T01:38:02;86970.31;;;19.28;59.31
43838;BME280;65998;46.256;7.534;2023-05-24T01:40:28;86973.13;;;19.28;59.46
43838;BME280;65998;46.256;7.534;2023-05-24T01:45:47;86973.78;;;19.28;59.60
43838;BME280;65998;46.256;7.534;2023-05-24T01:49:16;86964.75;;;19.28;59.60
43838;BME280;65998;46.256;7.534;2023-05-24T01:51:23;86972.44;;;19.27;59.43
43838;BME280;65998;46.256;7.534;2023-05-24T01:53:51;86974.56;;;19.27;59.66
43838;BME280;65998;46.256;7.534;2023-05-24T01:56:18;86968.31;;;19.26;59.71
43838;BME280;65998;46.256;7.534;2023-05-24T01:58:46;86973.19;;;19.26;59.85
43838;BME280;65998;46.256;7.534;2023-05-24T02:01:13;86969.75;;;19.25;60.01
43838;BME280;65998;46.256;7.534;2023-05-24T02:03:39;86973.97;;;19.24;60.08
43838;BME280;65998;46.256;7.534;2023-05-24T02:06:06;86970.50;;;19.24;60.07
43838;BME280;65998;46.256;7.534;2023-05-24T02:08:31;86962.91;;;19.22;60.15
43838;BME280;65998;46.256;7.534;2023-05-24T02:10:57;86973.38;;;19.22;60.15
43838;BME280;65998;46.256;7.534;2023-05-24T02:13:23;86970.59;;;19.22;60.28
43838;BME280;65998;46.256;7.534;2023-05-24T02:15:49;86969.91;;;19.21;60.26
43838;BME280;65998;46.256;7.534;2023-05-24T02:18:15;86972.00;;;19.21;60.42
43838;BME280;65998;46.256;7.534;2023-05-24T02:20:41;86965.78;;;19.20;60.25
43838;BME280;65998;46.256;7.534;2023-05-24T02:23:06;86967.88;;;19.20;60.36
43838;BME280;65998;46.256;7.534;2023-05-24T02:25:32;86968.56;;;19.20;60.41
43838;BME280;65998;46.256;7.534;2023-05-24T02:27:58;86962.31;;;19.20;60.45
43838;BME280;65998;46.256;7.534;2023-05-24T02:30:24;86967.22;;;19.19;60.55
43838;BME280;65998;46.256;7.534;2023-05-24T02:32:50;86965.84;;;19.18;60.38
43838;BME280;65998;46.256;7.534;2023-05-24T02:35:16;86966.53;;;19.19;60.39
43838;BME280;65998;46.256;7.534;2023-05-24T02:37:42;86972.78;;;19.19;60.44
43838;BME280;65998;46.256;7.534;2023-05-24T02:40:08;86961.63;;;19.19;60.43
43838;BME280;65998;46.256;7.534;2023-05-24T02:42:34;86965.84;;;19.18;60.33
43838;BME280;65998;46.256;7.534;2023-05-24T02:45:00;86963.06;;;19.18;60.14
43838;BME280;65998;46.256;7.534;2023-05-24T02:47:26;86957.50;;;19.18;60.35
43838;BME280;65998;46.256;7.534;2023-05-24T02:49:53;86959.59;;;19.18;60.40
43838;BME280;65998;46.256;7.534;2023-05-24T02:52:19;86961.72;;;19.17;60.31
43838;BME280;65998;46.256;7.534;2023-05-24T02:54:45;86956.16;;;19.17;60.38
43838;BME280;65998;46.256;7.534;2023-05-24T02:57:10;86958.25;;;19.17;60.28
43838;BME280;65998;46.256;7.534;2023-05-24T02:59:36;86958.34;;;19.14;60.36
43838;BME280;65998;46.256;7.534;2023-05-24T03:02:02;86959.69;;;19.16;60.33
43838;BME280;65998;46.256;7.534;2023-05-24T03:04:28;86955.56;;;19.14;60.51
43838;BME280;65998;46.256;7.534;2023-05-24T03:06:54;86944.41;;;19.14;60.46
43838;BME280;65998;46.256;7.534;2023-05-24T03:09:20;86951.41;;;19.13;60.41
43838;BME280;65998;46.256;7.534;2023-05-24T03:11:45;86947.97;;;19.13;60.32
43838;BME280;65998;46.256;7.534;2023-05-24T03:14:11;86953.53;;;19.13;60.30
43838;BME280;65998;46.256;7.534;2023-05-24T03:16:37;86956.31;;;19.13;60.28
43838;BME280;65998;46.256;7.534;2023-05-24T03:19:03;86952.19;;;19.12;60.38
43838;BME280;65998;46.256;7.534;2023-05-24T03:21:29;86953.59;;;19.11;60.33
43838;BME280;65998;46.256;7.534;2023-05-24T03:23:55;86955.63;;;19.12;60.27
43838;BME280;65998;46.256;7.534;2023-05-24T03:26:20;86952.19;;;19.12;60.32
43838;BME280;65998;46.256;7.534;2023-05-24T03:28:46;86951.50;;;19.11;60.38
43838;BME280;65998;46.256;7.534;2023-05-24T03:31:12;86954.97;;;19.12;60.23
43838;BME280;65998;46.256;7.534;2023-05-24T03:33:38;86956.41;;;19.11;60.36
43838;BME280;65998;46.256;7.534;2023-05-24T03:36:04;86955.03;;;19.10;60.41
43838;BME280;65998;46.256;7.534;2023-05-24T03:38:31;86957.84;;;19.10;60.32
43838;BME280;65998;46.256;7.534;2023-05-24T03:40:56;86963.41;;;19.10;60.39
43838;BME280;65998;46.256;7.534;2023-05-24T03:43:22;86964.84;;;19.09;60.35
43838;BME280;65998;46.256;7.534;2023-05-24T03:45:48;86964.84;;;19.09;60.28
43838;BME280;65998;46.256;7.534;2023-05-24T03:48:14;86960.69;;;19.08;60.34
43838;BME280;65998;46.256;7.534;2023-05-24T03:50:40;86964.84;;;19.09;60.34
43838;BME280;65998;46.256;7.534;2023-05-24T03:53:06;86968.38;;;19.07;60.32
43838;BME280;65998;46.256;7.534;2023-05-24T03:55:31;86962.81;;;19.07;60.34
43838;BME280;65998;46.256;7.534;2023-05-24T03:57:57;86975.38;;;19.06;60.36
43838;BME280;65998;46.256;7.534;2023-05-24T04:00:23;86976.72;;;19.07;60.34
43838;BME280;65998;46.256;7.534;2023-05-24T04:02:49;86969.13;;;19.06;60.26
43838;BME280;65998;46.256;7.534;2023-05-24T04:05:14;86969.13;;;19.06;60.35
43838;BME280;65998;46.256;7.534;2023-05-24T04:07:40;86973.34;;;19.05;60.23
43838;BME280;65998;46.256;7.534;2023-05-24T04:10:07;86968.47;;;19.05;60.41
43838;BME280;65998;46.256;7.534;2023-05-24T04:12:33;86967.09;;;19.04;60.23
43838;BME280;65998;46.256;7.534;2023-05-24T04:14:59;86969.91;;;19.04;60.12
43838;BME280;65998;46.256;7.534;2023-05-24T04:17:26;86969.91;;;19.04;60.24
43838;BME280;65998;46.256;7.534;2023-05-24T04:19:52;86971.31;;;19.03;60.23
43838;BME280;65998;46.256;7.534;2023-05-24T04:22:18;86967.88;;;19.03;60.17
43838;BME280;65998;46.256;7.534;2023-05-24T04:24:44;86967.88;;;19.03;60.12
43838;BME280;65998;46.256;7.534;2023-05-24T04:27:10;86967.19;;;19.02;60.11
43838;BME280;65998;46.256;7.534;2023-05-24T04:29:38;86966.50;;;19.02;60.10
43838;BME280;65998;46.256;7.534;2023-05-24T04:32:05;86972.75;;;19.02;60.05
43838;BME280;65998;46.256;7.534;2023-05-24T04:34:31;86971.41;;;19.01;59.96
43838;BME280;65998;46.256;7.534;2023-05-24T04:36:57;86965.84;;;19.01;59.95
43838;BME280;65998;46.256;7.534;2023-05-24T04:39:23;86975.63;;;19.00;59.90
43838;BME280;65998;46.256;7.534;2023-05-24T04:41:48;86970.81;;;18.99;59.76
43838;BME280;65998;46.256;7.534;2023-05-24T04:44:14;86969.38;;;19.00;59.72
43838;BME280;65998;46.256;7.534;2023-05-24T04:46:40;86973.53;;;19.01;59.77
43838;BME280;65998;46.256;7.534;2023-05-24T04:49:06;86971.50;;;18.99;59.61
43838;BME280;65998;46.256;7.534;2023-05-24T04:51:32;86970.81;;;18.99;59.68
43838;BME280;65998;46.256;7.534;2023-05-24T04:53:57;86979.16;;;18.99;59.58
43838;BME280;65998;46.256;7.534;2023-05-24T04:56:23;86970.81;;;18.99;59.63
43838;BME280;65998;46.256;7.534;2023-05-24T04:58:49;86972.94;;;18.98;59.48
43838;BME280;65998;46.256;7.534;2023-05-24T05:01:15;86975.03;;;18.98;59.43
43838;BME280;65998;46.256;7.534;2023-05-24T05:03:40;86979.25;;;18.97;59.45
43838;BME280;65998;46.256;7.534;2023-05-24T05:06:06;86973.00;;;18.96;59.46
43838;BME280;65998;46.256;7.534;2023-05-24T05:08:32;86975.78;;;18.96;59.43
43838;BME280;65998;46.256;7.534;2023-05-24T05:10:58;86972.31;;;18.96;59.37
43838;BME280;65998;46.256;7.534;2023-05-24T05:13:24;86969.53;;;18.96;59.32
43838;BME280;65998;46.256;7.534;2023-05-24T05:15:50;86971.66;;;18.95;59.32
43838;BME280;65998;46.256;7.534;2023-05-24T05:18:16;86968.88;;;18.95;59.16
43838;BME280;65998;46.256;7.534;2023-05-24T05:20:41;86970.31;;;18.94;59.18
43838;BME280;65998;46.256;7.534;2023-05-24T05:23:07;86966.84;;;18.94;59.19
43838;BME280;65998;46.256;7.534;2023-05-24T05:25:33;86972.41;;;18.94;59.23
43838;BME280;65998;46.256;7.534;2023-05-24T05:27:59;86976.63;;;18.93;59.15
43838;BME280;65998;46.256;7.534;2023-05-24T05:30:25;86979.41;;;18.93;59.18
43838;BME280;65998;46.256;7.534;2023-05-24T05:32:50;86979.41;;;18.93;59.08
43838;BME280;65998;46.256;7.534;2023-05-24T05:35:16;86982.88;;;18.93;59.04
43838;BME280;65998;46.256;7.534;2023-05-24T05:37:42;86975.94;;;18.92;59.04
43838;BME280;65998;46.256;7.534;2023-05-24T05:40:08;86978.06;;;18.92;58.90
43838;BME280;65998;46.256;7.534;2023-05-24T05:42:34;86978.06;;;18.92;58.94
43838;BME280;65998;46.256;7.534;2023-05-24T05:45:00;86980.16;;;18.91;58.94
43838;BME280;65998;46.256;7.534;2023-05-24T05:47:25;86979.50;;;18.91;58.95
43838;BME280;65998;46.256;7.534;2023-05-24T05:49:51;86978.81;;;18.90;58.94
43838;BME280;65998;46.256;7.534;2023-05-24T05:52:17;86969.13;;;18.89;58.84
43838;BME280;65998;46.256;7.534;2023-05-24T05:54:43;86972.56;;;18.90;58.87
43838;BME280;65998;46.256;7.534;2023-05-24T05:57:09;86975.34;;;18.90;58.92
43838;BME280;65998;46.256;7.534;2023-05-24T05:59:34;86970.53;;;18.88;58.86
43838;BME280;65998;46.256;7.534;2023-05-24T06:02:02;86974.00;;;18.89;58.75
43838;BME280;65998;46.256;7.534;2023-05-24T06:04:28;86972.66;;;18.88;58.89
43838;BME280;65998;46.256;7.534;2023-05-24T06:06:53;86967.09;;;18.88;58.76
43838;BME280;65998;46.256;7.534;2023-05-24T06:09:19;86974.09;;;18.87;58.67
43838;BME280;65998;46.256;7.534;2023-05-24T06:11:45;86974.75;;;18.87;58.77
43838;BME280;65998;46.256;7.534;2023-05-24T06:14:11;86978.91;;;18.88;58.74
43838;BME280;65998;46.256;7.534;2023-05-24T06:16:37;86978.97;;;18.86;58.72
43838;BME280;65998;46.256;7.534;2023-05-24T06:19:03;86981.75;;;18.86;58.76
43838;BME280;65998;46.256;7.534;2023-05-24T06:21:29;86978.97;;;18.86;58.70
43838;BME280;65998;46.256;7.534;2023-05-24T06:23:54;86974.84;;;18.85;58.75
43838;BME280;65998;46.256;7.534;2023-05-24T06:26:20;86970.72;;;18.84;58.79
43838;BME280;65998;46.256;7.534;2023-05-24T06:28:46;86976.94;;;18.85;58.77
43838;BME280;65998;46.256;7.534;2023-05-24T06:31:12;86967.25;;;18.84;58.72
43838;BME280;65998;46.256;7.534;2023-05-24T06:33:38;86966.56;;;18.83;58.82
43838;BME280;65998;46.256;7.534;2023-05-24T06:36:03;86967.25;;;18.84;58.72
43838;BME280;65998;46.256;7.534;2023-05-24T06:38:30;86974.94;;;18.83;58.64
43838;BME280;65998;46.256;7.534;2023-05-24T06:40:56;86964.53;;;18.81;58.72
43838;BME280;65998;46.256;7.534;2023-05-24T06:43:22;86968.75;;;18.80;58.64
43838;BME280;65998;46.256;7.534;2023-05-24T06:45:48;86969.44;;;18.81;58.75
43838;BME280;65998;46.256;7.534;2023-05-24T06:48:14;86967.34;;;18.81;58.78
43838;BME280;65998;46.256;7.534;2023-05-24T06:50:39;86966.66;;;18.81;58.64
43838;BME280;65998;46.256;7.534;2023-05-24T06:53:05;86976.34;;;18.82;58.55
43838;BME280;65998;46.256;7.534;2023-05-24T06:55:31;86975.69;;;18.81;58.59
43838;BME280;65998;46.256;7.534;2023-05-24T06:57:57;86976.34;;;18.82;58.67
43838;BME280;65998;46.256;7.534;2023-05-24T07:00:22;86972.22;;;18.81;58.51
43838;BME280;65998;46.256;7.534;2023-05-24T07:02:48;86974.25;;;18.83;58.55
43838;BME280;65998;46.256;7.534;2023-05-24T07:05:14;86970.13;;;18.81;58.56
43838;BME280;65998;46.256;7.534;2023-05-24T07:07:41;86973.56;;;18.82;58.49
43838;BME280;65998;46.256;7.534;2023-05-24T07:10:08;86970.13;;;18.81;58.67
43838;BME280;65998;46.256;7.534;2023-05-24T07:12:35;86961.09;;;18.81;58.59
43838;BME280;65998;46.256;7.534;2023-05-24T07:15:05;86967.34;;;18.81;58.57
43838;BME280;65998;46.256;7.534;2023-05-24T07:17:31;86965.22;;;18.82;58.51
43838;BME280;65998;46.256;7.534;2023-05-24T07:19:57;86969.44;;;18.81;58.54
43838;BME280;65998;46.256;7.534;2023-05-24T07:22:23;86965.97;;;18.80;58.39
43838;BME280;65998;46.256;7.534;2023-05-24T07:24:48;86972.91;;;18.81;58.48
43838;BME280;65998;46.256;7.534;2023-05-24T07:27:14;86965.97;;;18.80;58.49
43838;BME280;65998;46.256;7.534;2023-05-24T07:29:40;86964.63;;;18.79;58.49
43838;BME280;65998;46.256;7.534;2023-05-24T07:32:06;86959.72;;;18.80;58.42
43838;BME280;65998;46.256;7.534;2023-05-24T07:34:32;86963.94;;;18.79;58.47
43838;BME280;65998;46.256;7.534;2023-05-24T07:36:58;86961.16;;;18.79;58.43
43838;BME280;65998;46.256;7.534;2023-05-24T07:39:24;86959.06;;;18.79;58.35
43838;BME280;65998;46.256;7.534;2023-05-24T07:41:50;86949.34;;;18.78;58.40
43838;BME280;65998;46.256;7.534;2023-05-24T07:44:17;86961.16;;;18.79;58.33
43838;BME280;65998;46.256;7.534;2023-05-24T07:46:43;86958.38;;;18.79;58.22
43838;BME280;65998;46.256;7.534;2023-05-24T07:49:09;86950.72;;;18.79;58.28
43838;BME280;65998;46.256;7.534;2023-05-24T07:51:35;86939.56;;;18.79;58.16
43838;BME280;65998;46.256;7.534;2023-05-24T07:54:01;86936.78;;;18.79;58.24
43838;BME280;65998;46.256;7.534;2023-05-24T07:56:27;86943.03;;;18.80;58.13
43838;BME280;65998;46.256;7.534;2023-05-24T07:58:52;86935.34;;;18.80;58.07
43838;BME280;65998;46.256;7.534;2023-05-24T08:01:18;86929.78;;;18.80;58.04
43838;BME280;65998;46.256;7.534;2023-05-24T08:03:44;86936.72;;;18.81;58.03
43838;BME280;65998;46.256;7.534;2023-05-24T08:06:11;86932.50;;;18.83;58.06
43838;BME280;65998;46.256;7.534;2023-05-24T08:08:37;86927.50;;;18.85;57.98
43838;BME280;65998;46.256;7.534;2023-05-24T08:11:04;86935.09;;;18.87;57.91
43838;BME280;65998;46.256;7.534;2023-05-24T08:13:29;86935.03;;;18.89;57.95
43838;BME280;65998;46.256;7.534;2023-05-24T08:15:55;86939.84;;;18.90;57.94
43838;BME280;65998;46.256;7.534;2023-05-24T08:18:21;86936.38;;;18.90;57.86
43838;BME280;65998;46.256;7.534;2023-05-24T08:20:47;86936.38;;;18.90;57.95
43838;BME280;65998;46.256;7.534;2023-05-24T08:23:12;86936.38;;;18.90;57.95
43838;BME280;65998;46.256;7.534;2023-05-24T08:25:38;86932.25;;;18.89;58.01
43838;BME280;65998;46.256;7.534;2023-05-24T08:28:04;86932.91;;;18.89;58.04
43838;BME280;65998;46.256;7.534;2023-05-24T08:30:30;86932.25;;;18.89;58.08
43838;BME280;65998;46.256;7.534;2023-05-24T08:32:55;86931.56;;;18.88;57.97
43838;BME280;65998;46.256;7.534;2023-05-24T08:35:21;86933.69;;;18.88;58.09
43838;BME280;65998;46.256;7.534;2023-05-24T08:37:47;86937.13;;;18.88;57.96
43838;BME280;65998;46.256;7.534;2023-05-24T08:40:13;86933.69;;;18.88;58.05
43838;BME280;65998;46.256;7.534;2023-05-24T08:42:40;86935.78;;;18.87;58.10
43838;BME280;65998;46.256;7.534;2023-05-24T08:45:13;86935.78;;;18.87;58.03
43838;BME280;65998;46.256;7.534;2023-05-24T08:47:39;86934.44;;;18.86;58.06
43838;BME280;65998;46.256;7.534;2023-05-24T08:50:06;86933.00;;;18.87;58.09
43838;BME280;65998;46.256;7.534;2023-05-24T08:52:33;86940.00;;;18.86;58.00
43838;BME280;65998;46.256;7.534;2023-05-24T08:55:00;86930.97;;;18.86;58.09
43838;BME280;65998;46.256;7.534;2023-05-24T08:57:27;86927.44;;;18.87;58.17
43838;BME280;65998;46.256;7.534;2023-05-24T08:59:53;86932.41;;;18.85;58.13
43838;BME280;65998;46.256;7.534;2023-05-24T09:02:19;86927.50;;;18.85;58.11
43838;BME280;65998;46.256;7.534;2023-05-24T09:04:48;86932.31;;;18.87;58.09
43838;BME280;65998;46.256;7.534;2023-05-24T09:07:17;86923.28;;;18.86;58.04
43838;BME280;65998;46.256;7.534;2023-05-24T09:09:52;86926.75;;;18.87;58.06
43838;BME280;65998;46.256;7.534;2023-05-24T09:12:21;86924.06;;;18.85;57.84
43838;BME280;65998;46.256;7.534;2023-05-24T09:14:48;86915.69;;;18.85;57.82
43838;BME280;65998;46.256;7.534;2023-05-24T09:17:14;86918.50;;;18.85;57.80
43838;BME280;65998;46.256;7.534;2023-05-24T09:19:44;86916.38;;;18.85;57.71
43838;BME280;65998;46.256;7.534;2023-05-24T09:22:12;86922.63;;;18.86;57.82
43838;BME280;65998;46.256;7.534;2023-05-24T09:24:48;86926.09;;;18.86;57.71
43838;BME280;65998;46.256;7.534;2023-05-24T09:27:15;86915.69;;;18.85;57.66
43838;BME280;65998;46.256;7.534;2023-05-24T09:29:42;86916.38;;;18.85;57.69
43838;BME280;65998;46.256;7.534;2023-05-24T09:32:08;86915.69;;;18.85;57.62
43838;BME280;65998;46.256;7.534;2023-05-24T09:34:41;86918.41;;;18.87;57.64
43838;BME280;65998;46.256;7.534;2023-05-24T09:37:14;86917.06;;;18.86;57.48
43838;BME280;65998;46.256;7.534;2023-05-24T09:39:41;86919.16;;;18.85;57.64
43838;BME280;65998;46.256;7.534;2023-05-24T09:42:23;86914.94;;;18.86;57.53
43838;BME280;65998;46.256;7.534;2023-05-24T09:47:28;86908.69;;;18.86;57.45
43838;BME280;65998;46.256;7.534;2023-05-24T09:49:54;86912.16;;;18.86;57.53
43838;BME280;65998;46.256;7.534;2023-05-24T09:52:21;86916.38;;;18.85;57.40
43838;BME280;65998;46.256;7.534;2023-05-24T09:54:47;86914.94;;;18.86;57.35
43838;BME280;65998;46.256;7.534;2023-05-24T09:57:15;86912.16;;;18.86;57.38
43838;BME280;65998;46.256;7.534;2023-05-24T09:59:41;86900.34;;;18.86;57.42
43838;BME280;65998;46.256;7.534;2023-05-24T10:02:08;86901.03;;;18.86;57.31
43838;BME280;65998;46.256;7.534;2023-05-24T10:04:35;86899.69;;;18.85;57.36
43838;BME280;65998;46.256;7.534;2023-05-24T10:07:01;86903.13;;;18.86;57.47
43838;BME280;65998;46.256;7.534;2023-05-24T10:09:28;86901.03;;;18.86;57.43
43838;BME280;65998;46.256;7.534;2023-05-24T10:11:54;86894.78;;;18.86;57.48
43838;BME280;65998;46.256;7.534;2023-05-24T10:14:21;86903.81;;;18.86;57.42
43838;BME280;65998;46.256;7.534;2023-05-24T10:16:47;86901.03;;;18.86;57.41
43838;BME280;65998;46.256;7.534;2023-05-24T10:19:13;86900.34;;;18.86;57.34
43838;BME280;65998;46.256;7.534;2023-05-24T10:21:40;86901.69;;;18.87;57.31
43838;BME280;65998;46.256;7.534;2023-05-24T10:24:08;86901.03;;;18.86;57.34
43838;BME280;65998;46.256;7.534;2023-05-24T10:26:38;86903.81;;;18.86;57.36
43838;BME280;65998;46.256;7.534;2023-05-24T10:29:07;86896.13;;;18.87;57.50
43838;BME280;65998;46.256;7.534;2023-05-24T10:31:38;86892.69;;;18.86;57.22
43838;BME280;65998;46.256;7.534;2023-05-24T10:34:05;86889.88;;;18.86;57.29
43838;BME280;65998;46.256;7.534;2023-05-24T10:36:32;86887.09;;;18.86;57.28
43838;BME280;65998;46.256;7.534;2023-05-24T10:39:13;86888.53;;;18.85;57.14
43838;BME280;65998;46.256;7.534;2023-05-24T10:41:40;86889.88;;;18.86;57.25
43838;BME280;65998;46.256;7.534;2023-05-24T10:44:21;86881.53;;;18.86;57.21
43838;BME280;65998;46.256;7.534;2023-05-24T10:49:31;86882.22;;;18.87;57.31
43838;BME280;65998;46.256;7.534;2023-05-24T10:52:08;86873.19;;;18.86;57.17
43838;BME280;65998;46.256;7.534;2023-05-24T10:54:34;86863.41;;;18.87;57.18
43838;BME280;65998;46.256;7.534;2023-05-24T10:57:01;86862.72;;;18.87;57.27
43838;BME280;65998;46.256;7.534;2023-05-24T10:59:35;86865.50;;;18.87;57.21
43838;BME280;65998;46.256;7.534;2023-05-24T11:02:05;86862.06;;;18.86;57.21
43838;BME280;65998;46.256;7.534;2023-05-24T11:04:36;86854.38;;;18.87;57.22
43838;BME280;65998;46.256;7.534;2023-05-24T11:07:05;86861.38;;;18.86;57.14
43838;BME280;65998;46.256;7.534;2023-05-24T11:09:32;86860.63;;;18.87;57.18
43838;BME280;65998;46.256;7.534;2023-05-24T11:12:07;86862.06;;;18.86;57.20
43838;BME280;65998;46.256;7.534;2023-05-24T11:14:37;86863.41;;;18.87;57.25
43838;BME280;65998;46.256;7.534;2023-05-24T11:17:03;86862.72;;;18.87;57.19
43838;BME280;65998;46.256;7.534;2023-05-24T11:19:36;86864.75;;;18.88;57.29
43838;BME280;65998;46.256;7.534;2023-05-24T11:22:05;86857.16;;;18.87;57.28
43838;BME280;65998;46.256;7.534;2023-05-24T11:24:32;86852.25;;;18.87;57.24
43838;BME280;65998;46.256;7.534;2023-05-24T11:26:59;86850.16;;;18.88;57.23
43838;BME280;65998;46.256;7.534;2023-05-24T11:29:25;86852.25;;;18.87;57.24
43838;BME280;65998;46.256;7.534;2023-05-24T11:31:56;86857.75;;;18.89;57.38
43838;BME280;65998;46.256;7.534;2023-05-24T11:34:23;86856.41;;;18.88;57.25
43838;BME280;65998;46.256;7.534;2023-05-24T11:36:49;86848.03;;;18.88;57.29
43838;BME280;65998;46.256;7.534;2023-05-24T11:39:16;86848.03;;;18.88;57.46
43838;BME280;65998;46.256;7.534;2023-05-24T11:41:42;86841.81;;;18.88;57.26
43838;BME280;65998;46.256;7.534;2023-05-24T11:44:10;86842.47;;;18.88;57.24
43838;BME280;65998;46.256;7.534;2023-05-24T11:46:37;86837.59;;;18.89;57.32
43838;BME280;65998;46.256;7.534;2023-05-24T11:49:04;86836.22;;;18.88;57.41
43838;BME280;65998;46.256;7.534;2023-05-24T11:51:32;86841.72;;;18.90;57.39
43838;BME280;65998;46.256;7.534;2023-05-24T11:53:58;86836.81;;;18.90;57.38
43838;BME280;65998;46.256;7.534;2023-05-24T11:56:25;86833.38;;;18.90;57.44
43838;BME280;65998;46.256;7.534;2023-05-24T11:59:07;86827.78;;;18.90;57.43
43838;BME280;65998;46.256;7.534;2023-05-24T12:01:33;86831.25;;;18.90;57.49
43838;BME280;65998;46.256;7.534;2023-05-24T12:03:59;86827.03;;;18.91;57.46
43838;BME280;65998;46.256;7.534;2023-05-24T12:06:37;86813.78;;;18.92;57.53
43838;BME280;65998;46.256;7.534;2023-05-24T12:09:03;86818.69;;;18.91;57.53
43838;BME280;65998;46.256;7.534;2023-05-24T12:11:30;86808.97;;;18.90;57.59
43838;BME280;65998;46.256;7.534;2023-05-24T12:13:57;86813.78;;;18.92;57.49
43838;BME280;65998;46.256;7.534;2023-05-24T12:16:23;86817.25;;;18.92;57.57
43838;BME280;65998;46.256;7.534;2023-05-24T12:18:50;86811.69;;;18.92;57.63
43838;BME280;65998;46.256;7.534;2023-05-24T12:21:16;86809.56;;;18.93;57.48
43838;BME280;65998;46.256;7.534;2023-05-24T12:23:42;86803.31;;;18.92;57.76
43838;BME280;65998;46.256;7.534;2023-05-24T12:26:12;86810.25;;;18.93;57.72
43838;BME280;65998;46.256;7.534;2023-05-24T12:28:39;86805.34;;;18.94;57.75
43838;BME280;65998;46.256;7.534;2023-05-24T12:31:05;86806.03;;;18.94;57.79
43838;BME280;65998;46.256;7.534;2023-05-24T12:33:32;86803.25;;;18.94;57.75
43838;BME280;65998;46.256;7.534;2023-05-24T12:35:58;86803.91;;;18.95;57.81
43838;BME280;65998;46.256;7.534;2023-05-24T12:38:24;86803.91;;;18.95;57.77
43838;BME280;65998;46.256;7.534;2023-05-24T12:40:51;86813.63;;;18.96;57.85
43838;BME280;65998;46.256;7.534;2023-05-24T12:43:20;86803.16;;;18.96;57.83
43838;BME280;65998;46.256;7.534;2023-05-24T12:45:46;86807.38;;;18.95;57.86
43838;BME280;65998;46.256;7.534;2023-05-24T12:48:12;86801.81;;;18.95;57.95
43838;BME280;65998;46.256;7.534;2023-05-24T12:50:38;86810.84;;;18.96;57.85
43838;BME280;65998;46.256;7.534;2023-05-24T12:53:04;86808.72;;;18.96;57.90
43838;BME280;65998;46.256;7.534;2023-05-24T12:55:30;86805.25;;;18.96;58.09
43838;BME280;65998;46.256;7.534;2023-05-24T12:57:57;86810.06;;;18.97;58.04
43838;BME280;65998;46.256;7.534;2023-05-24T13:00:25;86806.63;;;18.97;58.01
43838;BME280;65998;46.256;7.534;2023-05-24T13:02:52;86804.50;;;18.97;58.16
43838;BME280;65998;46.256;7.534;2023-05-24T13:05:18;86801.72;;;18.97;57.98
43838;BME280;65998;46.256;7.534;2023-05-24T13:07:44;86805.19;;;18.98;58.16
43838;BME280;65998;46.256;7.534;2023-05-24T13:10:11;86806.53;;;18.99;58.02
43838;BME280;65998;46.256;7.534;2023-05-24T13:12:37;86809.31;;;18.99;58.17